EmailTwitter


Surface observations / United Kingdom / EGLL (03772)

Regions: Quebec | Canada | USA | Europe | France | UK | Elsewhere
Station
Display
Info & Location for EGLL (03772) | Help decoding METAR

Weather Conditions observed on 2017/06/26 at 06:50 UTC at LONDON/HEATHROW, UK (EGLL)

Temperature: 17.0 Celsius.

Dewpoint: 7.0 Celsius.

Relative Humidity: 52%

Winds: Northeast at 7 km/h or 4 knots.

Mean Sea level Pressure: 101.50 kilopascals.

Horizontal visibility: 6.21 statute miles or 9.94 kilometers.

Coded METAR:

EGLL 260650Z AUTO 04004KT 350V080 9999 NCD 17/07 Q1015=